Time;durP1;ratioP1;P1;durP2;ratioP2;P2;SDS_P1;SDS_P2;PMS_P1;PMS_P2;Temp;Humidity;BMP_temperature;BMP_pressure;BME280_temperature;BME280_humidity;BME280_pressure;Samples;Min_cycle;Max_cycle;Signal;HPM_P1;HPM_P2
2023/06/30 00:01:50;;;;;;;7.23;2.43;;;;;;;-145.18;100.00;46662.34;5084428;28;20053;-59
2023/06/30 00:04:16;;;;;;;8.10;2.27;;;;;;;-145.18;100.00;46656.50;5087376;28;20028;-60
2023/06/30 00:06:43;;;;;;;5.97;1.93;;;;;;;-145.18;100.00;46650.63;5085439;28;20061;-60
2023/06/30 00:09:09;;;;;;;4.67;1.87;;;;;;;-145.18;100.00;46662.34;5061159;28;20036;-60
2023/06/30 00:11:37;;;;;;;6.43;1.90;;;;;;;-145.18;100.00;46650.63;5091937;28;20032;-60
2023/06/30 00:14:03;;;;;;;10.40;2.83;;;;;;;-145.18;100.00;46658.44;5065933;28;20383;-60
2023/06/30 00:16:29;;;;;;;7.77;2.33;;;;;;;-145.18;100.00;46656.50;5091172;28;20040;-60
2023/06/30 00:18:55;;;;;;;6.17;1.90;;;;;;;-145.18;100.00;46656.50;5091815;28;20035;-59
2023/06/30 00:21:21;;;;;;;10.23;2.57;;;;;;;-145.18;100.00;46656.50;5063320;28;20116;-60
2023/06/30 00:23:46;;;;;;;9.40;2.33;;;;;;;-145.18;100.00;46654.53;5092186;28;20110;-60
2023/06/30 00:26:12;;;;;;;5.53;2.20;;;;;;;-145.18;100.00;46656.50;5086838;28;20056;-60
2023/06/30 00:28:37;;;;;;;5.27;2.20;;;;;;;-145.18;100.00;46660.41;5071235;28;20033;-60
2023/06/30 00:31:02;;;;;;;3.97;1.90;;;;;;;-145.18;100.00;46658.44;5066965;28;20044;-60
2023/06/30 00:33:28;;;;;;;3.20;1.67;;;;;;;-145.18;100.00;46660.41;5074965;28;20031;-59
2023/06/30 00:35:53;;;;;;;9.40;2.10;;;;;;;-145.18;100.00;46658.44;5072807;28;20036;-60
2023/06/30 00:38:18;;;;;;;8.17;2.13;;;;;;;-145.18;100.00;46662.34;5072454;28;20055;-60
2023/06/30 00:40:44;;;;;;;7.93;1.93;;;;;;;-145.18;100.00;46654.53;5072134;28;20068;-60
2023/06/30 00:43:09;;;;;;;2.10;1.63;;;;;;;-145.18;100.00;46660.41;5071761;28;20775;-60
2023/06/30 00:45:35;;;;;;;7.20;2.20;;;;;;;-145.18;100.00;46660.41;5085340;28;20064;-60
2023/06/30 00:48:00;;;;;;;5.50;2.00;;;;;;;-145.18;100.00;46662.34;5095370;28;20031;-60
2023/06/30 00:50:26;;;;;;;7.50;2.10;;;;;;;-145.18;100.00;46658.44;5070450;28;20036;-60
2023/06/30 00:52:52;;;;;;;10.43;1.83;;;;;;;-145.18;100.00;46658.44;5091561;28;20028;-60
2023/06/30 00:55:17;;;;;;;7.63;1.77;;;;;;;-145.18;100.00;46656.50;5080590;28;20472;-60
2023/06/30 00:57:43;;;;;;;8.40;2.17;;;;;;;-145.18;100.00;46660.41;5076393;28;20028;-60
2023/06/30 01:00:11;;;;;;;5.60;2.10;;;;;;;-145.18;100.00;46664.31;5082377;28;20040;-61
2023/06/30 01:03:11;;;;;;;6.23;1.67;;;;;;;-145.18;100.00;46662.34;5090257;28;20032;-59
2023/06/30 01:05:54;;;;;;;5.30;1.67;;;;;;;-145.18;100.00;46656.50;5057031;28;20065;-60
2023/06/30 01:08:39;;;;;;;7.47;1.93;;;;;;;-145.18;100.00;46664.31;5082860;28;20036;-60
2023/06/30 01:11:06;;;;;;;4.03;1.52;;;;;;;-145.18;100.00;46654.53;5071362;28;20041;-60
2023/06/30 01:13:32;;;;;;;6.57;1.80;;;;;;;-145.18;100.00;46658.44;5078530;28;20032;-60
2023/06/30 01:15:58;;;;;;;2.97;1.67;;;;;;;-145.18;100.00;46654.53;5086344;28;20025;-60
2023/06/30 01:18:26;;;;;;;8.87;2.13;;;;;;;-145.18;100.00;46656.50;5078594;28;20012;-60
2023/06/30 01:20:52;;;;;;;8.63;2.00;;;;;;;-145.18;100.00;46658.44;5077246;28;20112;-60
2023/06/30 01:23:31;;;;;;;4.93;1.90;;;;;;;-145.18;100.00;46660.41;5071967;28;20099;-60
2023/06/30 01:25:58;;;;;;;6.00;2.03;;;;;;;-145.18;100.00;46660.41;5072349;28;20522;-60
2023/06/30 01:28:27;;;;;;;5.00;2.23;;;;;;;-145.18;100.00;46656.50;5053522;28;20024;-60
2023/06/30 01:30:56;;;;;;;6.83;1.93;;;;;;;-145.18;100.00;46660.41;5071781;28;20033;-60
2023/06/30 01:33:22;;;;;;;7.47;2.53;;;;;;;-145.18;100.00;46656.50;5053808;28;20056;-60
2023/06/30 01:35:48;;;;;;;7.00;1.90;;;;;;;-145.18;100.00;46662.34;5072070;28;20531;-60
2023/06/30 01:38:13;;;;;;;3.80;1.57;;;;;;;-145.18;100.00;46660.41;5081060;28;20033;-59
2023/06/30 01:40:39;;;;;;;8.37;1.90;;;;;;;-145.18;100.00;46658.44;5074013;28;20056;-59
2023/06/30 01:43:05;;;;;;;4.17;1.80;;;;;;;-145.18;100.00;46662.34;5071154;28;20103;-60
2023/06/30 01:45:31;;;;;;;8.93;2.30;;;;;;;-145.18;100.00;46662.34;5075326;28;20033;-60
2023/06/30 01:47:58;;;;;;;6.03;2.13;;;;;;;-145.18;100.00;46660.41;5094938;28;20049;-59
2023/06/30 01:50:24;;;;;;;5.30;1.80;;;;;;;-145.18;100.00;46662.34;5091634;28;20064;-59
2023/06/30 01:52:50;;;;;;;5.93;1.77;;;;;;;-145.18;100.00;46658.44;5084562;28;20390;-60
2023/06/30 01:55:16;;;;;;;4.77;2.10;;;;;;;-145.18;100.00;46666.25;5091986;28;20024;-60
2023/06/30 01:57:42;;;;;;;5.00;1.83;;;;;;;-145.18;100.00;46654.53;5075313;28;20024;-60
2023/06/30 02:00:08;;;;;;;3.63;1.67;;;;;;;-145.18;100.00;46660.41;5075861;28;20030;-60
2023/06/30 02:02:33;;;;;;;4.90;1.97;;;;;;;-145.18;100.00;46656.50;5075049;28;20051;-60
2023/06/30 02:04:59;;;;;;;5.37;1.73;;;;;;;-145.18;100.00;46658.44;5075341;28;20514;-60
2023/06/30 02:07:24;;;;;;;3.17;1.53;;;;;;;-145.18;100.00;46656.50;5075156;28;20456;-60
2023/06/30 02:09:50;;;;;;;4.33;1.70;;;;;;;-145.18;100.00;46660.41;5074840;28;20036;-60
2023/06/30 02:12:16;;;;;;;4.17;1.70;;;;;;;-145.18;100.00;46656.50;5090522;28;20030;-60
2023/06/30 02:14:41;;;;;;;6.60;1.90;;;;;;;-145.18;100.00;46658.44;5074800;28;20514;-60
2023/06/30 02:17:10;;;;;;;4.20;1.70;;;;;;;-145.18;100.00;46658.44;5074624;28;20392;-60
2023/06/30 02:19:35;;;;;;;4.50;1.70;;;;;;;-145.18;100.00;46660.41;5090563;28;20758;-60
2023/06/30 02:22:00;;;;;;;2.43;1.77;;;;;;;-145.18;100.00;46658.44;5057199;28;20035;-59
2023/06/30 02:24:26;;;;;;;3.53;1.03;;;;;;;-145.18;100.00;46658.44;5075514;28;20027;-60
2023/06/30 02:26:51;;;;;;;2.10;1.10;;;;;;;-145.18;100.00;46658.44;5074881;28;20435;-60
2023/06/30 02:29:16;;;;;;;4.93;1.20;;;;;;;-145.18;100.00;46666.25;5075155;28;20067;-60
2023/06/30 02:31:42;;;;;;;9.20;1.70;;;;;;;-145.18;100.00;46660.41;5056558;28;20073;-60
2023/06/30 02:34:07;;;;;;;4.87;1.40;;;;;;;-145.18;100.00;46658.44;5077678;28;20024;-60
2023/06/30 02:36:33;;;;;;;4.07;1.47;;;;;;;-145.18;100.00;46658.44;5096709;28;20045;-60
2023/06/30 02:38:58;;;;;;;2.90;1.23;;;;;;;-145.18;100.00;46660.41;5054920;28;20039;-60
2023/06/30 02:41:23;;;;;;;3.90;1.50;;;;;;;-145.18;100.00;46658.44;5054806;28;20384;-60
2023/06/30 02:43:49;;;;;;;4.43;1.60;;;;;;;-145.18;100.00;46662.34;5068908;28;20107;-60
2023/06/30 02:46:14;;;;;;;2.37;1.07;;;;;;;-145.18;100.00;46664.31;5070938;28;20032;-60
2023/06/30 02:48:39;;;;;;;4.93;1.90;;;;;;;-145.18;100.00;46662.34;5073244;28;20033;-60
2023/06/30 02:51:05;;;;;;;5.37;1.80;;;;;;;-145.18;100.00;46660.41;5068909;28;20124;-60
2023/06/30 02:53:30;;;;;;;3.67;1.43;;;;;;;-145.18;100.00;46666.25;5068267;28;20040;-60
2023/06/30 02:55:56;;;;;;;1.63;1.30;;;;;;;-145.18;100.00;46660.41;5064711;28;20032;-60
2023/06/30 02:58:22;;;;;;;2.73;1.57;;;;;;;-145.18;100.00;46662.34;5067866;28;20396;-60
2023/06/30 03:00:49;;;;;;;4.63;2.10;;;;;;;-145.18;100.00;46658.44;5064291;28;20024;-60
2023/06/30 03:03:14;;;;;;;6.63;1.90;;;;;;;-145.18;100.00;46666.25;5067065;28;20515;-60
2023/06/30 03:05:40;;;;;;;5.60;2.00;;;;;;;-145.18;100.00;46662.34;5063206;28;20112;-60
2023/06/30 03:08:05;;;;;;;7.30;2.40;;;;;;;-145.18;100.00;46660.41;5060246;28;20396;-60
2023/06/30 03:10:31;;;;;;;6.63;2.23;;;;;;;-145.18;100.00;46664.31;5073404;28;20472;-60
2023/06/30 03:12:56;;;;;;;3.77;2.03;;;;;;;-145.18;100.00;46656.50;5071357;28;20217;-60
2023/06/30 03:15:22;;;;;;;4.73;2.23;;;;;;;-145.18;100.00;46654.53;5053357;28;20067;-60
2023/06/30 03:17:47;;;;;;;5.70;2.13;;;;;;;-145.18;100.00;46656.50;5052955;28;20025;-59
2023/06/30 03:20:12;;;;;;;4.33;2.00;;;;;;;-145.18;100.00;46654.53;5051962;28;20079;-60
2023/06/30 03:22:39;;;;;;;5.80;1.93;;;;;;;-145.18;100.00;46660.41;5053899;28;20255;-60
2023/06/30 03:25:05;;;;;;;8.83;2.17;;;;;;;-145.18;100.00;46654.53;5053880;28;20017;-60
2023/06/30 03:27:31;;;;;;;6.37;2.40;;;;;;;-145.18;100.00;46656.50;5065804;28;20024;-60
2023/06/30 03:29:56;;;;;;;5.50;1.97;;;;;;;-145.18;100.00;46662.34;5054010;28;20032;-60
2023/06/30 03:32:22;;;;;;;6.60;2.37;;;;;;;-145.18;100.00;46656.50;5052558;28;20502;-60
2023/06/30 03:34:47;;;;;;;6.93;2.57;;;;;;;-145.18;100.00;46656.50;5053529;28;20041;-60
2023/06/30 03:37:12;;;;;;;4.83;2.40;;;;;;;-145.18;100.00;46654.53;5065553;28;20044;-60
2023/06/30 03:39:38;;;;;;;4.73;2.67;;;;;;;-145.18;100.00;46656.50;5084638;28;20289;-60
2023/06/30 03:42:04;;;;;;;5.20;2.63;;;;;;;-145.18;100.00;46654.53;5089410;28;20036;-60
2023/06/30 03:44:29;;;;;;;6.07;2.27;;;;;;;-145.18;100.00;46652.59;5080522;28;20073;-60
2023/06/30 03:46:55;;;;;;;8.17;2.83;;;;;;;-145.18;100.00;46652.59;5092582;28;20036;-60
2023/06/30 03:49:22;;;;;;;5.70;2.30;;;;;;;-145.18;100.00;46648.69;5085701;28;20563;-60
2023/06/30 03:51:47;;;;;;;5.50;2.03;;;;;;;-145.18;100.00;46650.63;5054794;28;20403;-60
2023/06/30 03:54:12;;;;;;;8.23;2.00;;;;;;;-145.18;100.00;46654.53;5073403;28;20024;-60
2023/06/30 03:56:38;;;;;;;4.30;2.03;;;;;;;-145.18;100.00;46650.63;5073420;28;20622;-60
2023/06/30 03:59:03;;;;;;;5.13;2.33;;;;;;;-145.18;100.00;46654.53;5073095;28;20112;-60
2023/06/30 04:01:29;;;;;;;4.10;1.93;;;;;;;-145.18;100.00;46660.41;5074492;28;20033;-60
2023/06/30 04:03:54;;;;;;;5.20;2.37;;;;;;;-145.18;100.00;46652.59;5073869;28;20488;-60
2023/06/30 04:06:19;;;;;;;3.07;2.00;;;;;;;-145.18;100.00;46656.50;5072870;28;20064;-60
2023/06/30 04:08:45;;;;;;;6.30;1.60;;;;;;;-145.18;100.00;46652.59;5072857;28;20036;-60
2023/06/30 04:11:11;;;;;;;6.03;2.00;;;;;;;-145.18;100.00;46656.50;5073019;28;20067;-60
2023/06/30 04:13:36;;;;;;;4.77;1.63;;;;;;;-145.18;100.00;46654.53;5072682;28;20404;-60
2023/06/30 04:16:03;;;;;;;4.37;2.80;;;;;;;-145.18;100.00;46654.53;5071806;28;20029;-60
2023/06/30 04:18:28;;;;;;;3.83;2.00;;;;;;;-145.18;100.00;46660.41;5059902;28;20028;-60
2023/06/30 04:20:56;;;;;;;3.17;2.07;;;;;;;-145.18;100.00;46652.59;5071920;28;20089;-60
2023/06/30 04:23:22;;;;;;;4.17;2.50;;;;;;;-145.18;100.00;46654.53;5067431;28;20032;-60
2023/06/30 04:25:47;;;;;;;7.13;2.23;;;;;;;-145.18;100.00;46654.53;5064304;28;20036;-60
2023/06/30 04:28:12;;;;;;;6.53;1.70;;;;;;;-145.18;100.00;46652.59;5077133;28;20530;-60
2023/06/30 04:30:38;;;;;;;8.33;2.47;;;;;;;-145.18;100.00;46648.69;5070022;28;20499;-60
2023/06/30 04:33:04;;;;;;;9.07;2.60;;;;;;;-145.18;100.00;46656.50;5071852;28;20138;-62
2023/06/30 04:35:29;;;;;;;8.03;2.37;;;;;;;-145.18;100.00;46656.50;5060153;28;20086;-62
2023/06/30 04:37:54;;;;;;;4.00;2.63;;;;;;;-145.18;100.00;46656.50;5065130;28;20174;-62
2023/06/30 04:40:20;;;;;;;4.87;2.60;;;;;;;-145.18;100.00;46652.59;5065908;28;20094;-62
2023/06/30 04:42:45;;;;;;;9.43;2.40;;;;;;;-145.18;100.00;46656.50;5088139;28;20031;-62
2023/06/30 04:45:11;;;;;;;5.57;2.97;;;;;;;-145.18;100.00;46652.59;5072274;28;20399;-62
2023/06/30 04:47:36;;;;;;;5.27;2.33;;;;;;;-145.18;100.00;46654.53;5064838;28;20024;-62
2023/06/30 04:50:01;;;;;;;3.10;2.40;;;;;;;-145.18;100.00;46648.69;5058735;28;20029;-62
2023/06/30 04:52:27;;;;;;;9.50;2.60;;;;;;;-145.18;100.00;46650.63;5064771;28;20029;-62
2023/06/30 04:54:54;;;;;;;9.50;2.73;;;;;;;-145.18;100.00;46646.72;5086379;28;20030;-62
2023/06/30 04:57:21;;;;;;;9.83;3.00;;;;;;;-145.18;100.00;46646.72;5059122;28;20047;-61
2023/06/30 04:59:46;;;;;;;4.63;2.70;;;;;;;-145.18;100.00;46654.53;5087261;28;20107;-62
2023/06/30 05:02:11;;;;;;;8.33;3.03;;;;;;;-145.18;100.00;46652.59;5074246;28;20403;-62
2023/06/30 05:04:37;;;;;;;8.20;3.03;;;;;;;-145.18;100.00;46652.59;5093657;28;20036;-62
2023/06/30 05:07:02;;;;;;;8.00;3.20;;;;;;;-145.18;100.00;46648.69;5083321;28;20037;-62
2023/06/30 05:09:28;;;;;;;7.10;3.13;;;;;;;-145.18;100.00;46652.59;5086436;28;20475;-62
2023/06/30 05:11:53;;;;;;;5.27;3.00;;;;;;;-145.18;100.00;46650.63;5098311;28;20028;-62
2023/06/30 05:14:19;;;;;;;5.77;3.17;;;;;;;-145.18;100.00;46646.72;5062453;28;20547;-62
2023/06/30 05:16:44;;;;;;;5.33;2.87;;;;;;;-145.18;100.00;46648.69;5082006;28;20028;-61
2023/06/30 05:19:09;;;;;;;7.10;2.90;;;;;;;-145.18;100.00;46648.69;5078168;28;20028;-62
2023/06/30 05:21:35;;;;;;;6.73;2.50;;;;;;;-145.18;100.00;46646.72;5084023;28;20028;-62
2023/06/30 05:24:00;;;;;;;6.60;3.43;;;;;;;-145.18;100.00;46646.72;5079602;28;20490;-62
2023/06/30 05:26:25;;;;;;;9.67;2.90;;;;;;;-145.18;100.00;46654.53;5077156;28;20020;-62
2023/06/30 05:28:51;;;;;;;7.23;3.13;;;;;;;-145.18;100.00;46648.69;5090632;28;20107;-62
2023/06/30 05:31:16;;;;;;;9.67;3.20;;;;;;;-145.18;100.00;46646.72;5095908;28;20036;-62
2023/06/30 05:33:42;;;;;;;6.60;3.53;;;;;;;-145.18;100.00;46644.78;5063469;28;20380;-62
2023/06/30 05:36:07;;;;;;;5.97;3.20;;;;;;;-145.18;100.00;46646.72;5094534;28;20035;-62
2023/06/30 05:38:32;;;;;;;8.83;3.17;;;;;;;-145.18;100.00;46648.69;5079362;28;20105;-62
2023/06/30 05:40:58;;;;;;;6.27;2.80;;;;;;;-145.18;100.00;46642.81;5059090;28;20097;-62
2023/06/30 05:43:24;;;;;;;11.07;3.13;;;;;;;-145.18;100.00;46644.78;5084934;28;20024;-62
2023/06/30 05:45:50;;;;;;;5.07;3.03;;;;;;;-145.18;100.00;46646.72;5076455;28;20054;-62
2023/06/30 05:48:16;;;;;;;5.23;2.87;;;;;;;-145.18;100.00;46642.81;5075183;28;20514;-62
2023/06/30 05:50:41;;;;;;;6.67;3.30;;;;;;;-145.18;100.00;46646.72;5056848;28;20039;-62
2023/06/30 05:53:07;;;;;;;8.33;3.80;;;;;;;-145.18;100.00;46650.63;5035460;28;20033;-62
2023/06/30 05:55:32;;;;;;;6.83;3.07;;;;;;;-145.18;100.00;46644.78;5073491;28;20032;-62
2023/06/30 05:57:57;;;;;;;11.60;3.17;;;;;;;-145.18;100.00;46644.78;5066751;28;20033;-62
2023/06/30 06:00:24;;;;;;;9.90;3.13;;;;;;;-145.18;100.00;46644.78;5078721;28;20071;-62
2023/06/30 06:02:50;;;;;;;8.77;3.40;;;;;;;-145.18;100.00;46644.78;5064609;28;20182;-62
2023/06/30 06:05:15;;;;;;;9.03;3.20;;;;;;;-145.18;100.00;46648.69;5073571;28;20564;-62
2023/06/30 06:07:41;;;;;;;9.73;3.47;;;;;;;-145.18;100.00;46646.72;5070412;28;20028;-62
2023/06/30 06:10:07;;;;;;;5.33;3.30;;;;;;;-145.18;100.00;46646.72;5066810;28;20036;-62
2023/06/30 06:12:32;;;;;;;9.53;3.20;;;;;;;-145.18;100.00;46648.69;5077633;28;20055;-62
2023/06/30 06:14:57;;;;;;;6.23;3.13;;;;;;;-145.18;100.00;46654.53;5080441;28;20369;-62
2023/06/30 06:17:23;;;;;;;5.93;3.23;;;;;;;-145.18;100.00;46650.63;5083399;28;20391;-63
2023/06/30 06:19:48;;;;;;;5.37;2.90;;;;;;;-145.18;100.00;46652.59;5087580;28;20039;-61
2023/06/30 06:22:14;;;;;;;5.10;3.60;;;;;;;-145.18;100.00;46660.41;5083447;28;20024;-62
2023/06/30 06:24:39;;;;;;;10.53;3.30;;;;;;;-145.18;100.00;46660.41;5087951;28;20032;-62
2023/06/30 06:27:05;;;;;;;8.13;2.83;;;;;;;-145.18;100.00;46658.44;5080845;28;20033;-62
2023/06/30 06:29:30;;;;;;;9.37;3.60;;;;;;;-145.18;100.00;46656.50;5047961;28;20035;-62
2023/06/30 06:31:55;;;;;;;6.33;2.97;;;;;;;-145.18;100.00;46666.25;5067778;28;20037;-62
2023/06/30 06:34:21;;;;;;;10.03;3.37;;;;;;;-145.18;100.00;46666.25;5067966;28;20023;-62
2023/06/30 06:36:47;;;;;;;7.33;2.17;;;;;;;-145.18;100.00;46672.13;5074505;28;20093;-62
2023/06/30 06:39:14;;;;;;;9.20;2.73;;;;;;;-145.18;100.00;46670.16;5077301;28;20028;-62
2023/06/30 06:41:39;;;;;;;5.50;1.93;;;;;;;-145.18;100.00;46674.06;5059774;28;20503;-62
2023/06/30 06:44:05;;;;;;;4.37;2.00;;;;;;;-145.18;100.00;46679.94;5091456;28;20115;-62
2023/06/30 06:46:30;;;;;;;8.37;2.00;;;;;;;-145.18;100.00;46677.97;5082855;28;20103;-63
2023/06/30 06:48:56;;;;;;;3.17;1.50;;;;;;;-145.18;100.00;46679.94;5073796;28;20111;-62
2023/06/30 06:51:22;;;;;;;6.37;1.87;;;;;;;-145.18;100.00;46683.84;5085128;28;20375;-61
2023/06/30 06:53:47;;;;;;;4.87;1.70;;;;;;;-145.18;100.00;46681.88;5109132;28;20055;-61
2023/06/30 06:56:13;;;;;;;3.60;1.40;;;;;;;-145.18;100.00;46681.88;5089843;28;20100;-61
2023/06/30 06:58:38;;;;;;;3.97;1.30;;;;;;;-145.18;100.00;46685.78;5077068;28;20081;-61
2023/06/30 07:01:05;;;;;;;4.50;1.60;;;;;;;-145.18;100.00;46679.94;5086928;28;20032;-61
2023/06/30 07:03:30;;;;;;;3.17;1.43;;;;;;;-145.18;100.00;46613.50;5076893;28;20538;-61
2023/06/30 07:05:57;;;;;;;6.50;1.53;;;;;;;-145.18;100.00;46552.97;5092225;28;20080;-61
2023/06/30 07:08:23;;;;;;;5.57;2.37;;;;;;;-145.18;100.00;46560.78;5089876;28;20031;-61
2023/06/30 07:10:50;;;;;;;6.67;1.60;;;;;;;-145.18;100.00;46564.69;5093128;28;20047;-61
2023/06/30 07:13:20;;;;;;;4.00;1.57;;;;;;;-145.18;100.00;46584.22;5077923;28;20543;-61
2023/06/30 07:15:50;;;;;;;3.87;1.53;;;;;;;-145.18;100.00;46582.25;5084755;28;20028;-60
2023/06/30 07:18:17;;;;;;;4.77;1.50;;;;;;;-145.18;100.00;46590.06;5101661;28;20141;-61
2023/06/30 07:20:44;;;;;;;10.07;1.90;;;;;;;-145.18;100.00;46578.34;5085881;28;20024;-61
2023/06/30 07:23:10;;;;;;;5.73;1.63;;;;;;;-145.18;100.00;46570.53;5080337;28;20032;-61
2023/06/30 07:25:35;;;;;;;5.00;1.50;;;;;;;-145.18;100.00;46576.41;5075314;28;20668;-61
2023/06/30 07:28:01;;;;;;;8.33;1.70;;;;;;;-145.18;100.00;46572.50;5077956;28;20106;-60
2023/06/30 07:30:27;;;;;;;4.00;1.27;;;;;;;-145.18;100.00;46580.31;5083009;28;20043;-61
2023/06/30 07:32:56;;;;;;;2.23;1.20;;;;;;;-145.18;100.00;46578.34;5082055;28;20106;-61
2023/06/30 07:35:22;;;;;;;2.30;1.40;;;;;;;-145.18;100.00;46576.41;5092240;28;20039;-61
2023/06/30 07:37:49;;;;;;;7.03;1.37;;;;;;;-145.18;100.00;46574.44;5076999;28;20115;-61
2023/06/30 07:40:16;;;;;;;3.87;1.30;;;;;;;-145.18;100.00;46578.34;5081768;28;20036;-61
2023/06/30 07:42:42;;;;;;;5.77;1.60;;;;;;;-145.18;100.00;46593.97;5072596;28;20035;-61
2023/06/30 07:45:09;;;;;;;5.97;1.63;;;;;;;-145.18;100.00;46607.66;5085874;28;20024;-61
2023/06/30 07:47:34;;;;;;;3.93;1.37;;;;;;;-145.18;100.00;46597.88;5085699;28;20039;-61
2023/06/30 07:50:01;;;;;;;7.27;1.60;;;;;;;-145.18;100.00;46613.50;5084873;28;20041;-61
2023/06/30 07:52:26;;;;;;;5.30;1.50;;;;;;;-145.18;100.00;46607.66;5087572;28;20035;-61
2023/06/30 07:54:55;;;;;;;3.23;1.43;;;;;;;-145.18;100.00;46623.28;5079623;28;20033;-61
2023/06/30 07:57:21;;;;;;;1.97;1.20;;;;;;;-145.18;100.00;46617.41;5089667;28;20035;-61
2023/06/30 07:59:46;;;;;;;4.40;1.60;;;;;;;-145.18;100.00;46635.00;5081237;28;20035;-61
2023/06/30 08:02:12;;;;;;;4.63;1.37;;;;;;;-145.18;100.00;46635.00;5066763;28;20047;-61
2023/06/30 08:04:41;;;;;;;7.57;1.50;;;;;;;-145.18;100.00;46633.06;5086090;28;20503;-61
2023/06/30 08:07:07;;;;;;;2.50;1.53;;;;;;;-145.18;100.00;46668.22;5092272;28;20024;-61
2023/06/30 08:09:32;;;;;;;4.90;1.50;;;;;;;-145.18;100.00;46633.06;5087793;28;20377;-61
2023/06/30 08:11:58;;;;;;;4.60;1.27;;;;;;;-145.18;100.00;47219.09;5073008;28;20036;-61
2023/06/30 08:14:23;;;;;;;2.13;1.30;;;;;;;-145.18;100.00;46844.00;5078250;28;20094;-61
2023/06/30 08:16:49;;;;;;;3.97;1.60;;;;;;;-145.18;100.00;47088.19;5066429;28;20043;-61
2023/06/30 08:19:14;;;;;;;5.40;1.47;;;;;;;-145.18;100.00;47232.75;5072519;28;20127;-61
2023/06/30 08:21:40;;;;;;;2.13;1.30;;;;;;;-145.18;100.00;47176.09;5081541;28;20050;-61
2023/06/30 08:24:05;;;;;;;4.63;1.60;;;;;;;-145.18;100.00;47148.75;5060236;28;20557;-61
2023/06/30 08:26:30;;;;;;;1.43;1.20;;;;;;;-145.18;100.00;47162.44;5089370;28;20114;-61
2023/06/30 08:28:56;;;;;;;3.60;1.43;;;;;;;-145.18;100.00;47176.09;5071883;28;20093;-60
2023/06/30 08:31:21;;;;;;;3.60;1.40;;;;;;;-145.18;100.00;47213.22;5078778;28;20059;-61
2023/06/30 08:33:46;;;;;;;3.93;1.40;;;;;;;-145.18;100.00;47180.03;5079019;28;20032;-61
2023/06/30 08:36:12;;;;;;;4.77;1.40;;;;;;;-145.18;100.00;47152.66;5065271;28;20119;-61
2023/06/30 08:38:37;;;;;;;5.70;1.13;;;;;;;-145.18;100.00;47144.84;5081114;28;20033;-61
2023/06/30 08:41:03;;;;;;;3.93;1.30;;;;;;;-145.18;100.00;47137.03;5074886;28;20035;-61
2023/06/30 08:43:31;;;;;;;5.90;1.40;;;;;;;-145.18;100.00;47152.66;5071639;28;20032;-61
2023/06/30 08:45:58;;;;;;;2.90;1.43;;;;;;;-145.18;100.00;47152.66;5091406;28;20024;-61
2023/06/30 08:48:26;;;;;;;2.73;1.30;;;;;;;-145.18;100.00;47160.47;5071976;28;20028;-61
2023/06/30 08:50:52;;;;;;;7.40;1.30;;;;;;;-145.18;100.00;47144.84;5078947;28;20047;-61
2023/06/30 08:53:18;;;;;;;6.53;1.20;;;;;;;-145.18;100.00;47125.31;5078699;28;20032;-61
2023/06/30 08:55:47;;;;;;;2.10;1.30;;;;;;;-145.18;100.00;47097.97;5082461;28;20476;-61
2023/06/30 08:58:13;;;;;;;2.23;1.13;;;;;;;-145.18;100.00;47121.41;5071224;28;20515;-61
2023/06/30 09:00:38;;;;;;;2.60;1.17;;;;;;;-145.18;100.00;47123.38;5059422;28;20033;-61
2023/06/30 09:03:05;;;;;;;6.27;1.53;;;;;;;-145.18;100.00;47103.81;5082609;28;20028;-61
2023/06/30 09:05:34;;;;;;;2.47;1.00;;;;;;;-145.18;100.00;47109.69;5054050;28;20062;-61
2023/06/30 09:08:03;;;;;;;1.57;1.07;;;;;;;-145.18;100.00;47074.53;5077017;28;20078;-61
2023/06/30 09:10:37;;;;;;;1.97;1.10;;;;;;;-145.18;100.00;47082.34;5074771;28;20373;-61
2023/06/30 09:13:04;;;;;;;3.70;1.47;;;;;;;-145.18;100.00;47097.97;5080934;28;20039;-61
2023/06/30 09:15:30;;;;;;;3.40;1.40;;;;;;;-145.18;100.00;47097.97;5079064;28;20036;-61
2023/06/30 09:17:56;;;;;;;5.67;1.40;;;;;;;-145.18;100.00;47094.06;5081148;28;20032;-61
2023/06/30 09:20:22;;;;;;;4.83;1.30;;;;;;;-145.18;100.00;47097.97;5079075;28;20123;-61
2023/06/30 09:22:48;;;;;;;5.53;2.13;;;;;;;-145.18;100.00;47094.06;5080102;28;20029;-61
2023/06/30 09:25:25;;;;;;;2.20;1.20;;;;;;;-145.18;100.00;47113.59;5079079;28;20120;-61
2023/06/30 09:27:51;;;;;;;4.00;1.40;;;;;;;-145.18;100.00;47131.19;5074295;28;20035;-60
2023/06/30 09:30:17;;;;;;;3.03;1.20;;;;;;;-145.18;100.00;47109.69;5074934;28;20044;-61
2023/06/30 09:32:42;;;;;;;1.93;1.73;;;;;;;-145.18;100.00;47086.25;5060893;28;20502;-61
2023/06/30 09:35:12;;;;;;;2.83;1.30;;;;;;;-145.18;100.00;47080.38;5071535;28;20547;-61
2023/06/30 09:37:47;;;;;;;3.50;1.00;;;;;;;-145.18;100.00;47055.00;5070838;28;20094;-61
2023/06/30 09:40:16;;;;;;;7.90;1.50;;;;;;;-145.18;100.00;47068.66;5068966;28;20044;-61
2023/06/30 09:42:45;;;;;;;7.53;1.80;;;;;;;-145.18;100.00;47074.53;5071423;28;20040;-61
2023/06/30 09:45:10;;;;;;;2.33;1.47;;;;;;;-145.18;100.00;47070.63;5071450;28;20040;-60
2023/06/30 09:47:36;;;;;;;2.80;1.37;;;;;;;-145.18;100.00;47092.09;5071101;28;20450;-61
2023/06/30 09:50:02;;;;;;;2.90;1.30;;;;;;;-145.18;100.00;47105.78;5070577;28;20036;-60
2023/06/30 09:52:31;;;;;;;2.83;1.40;;;;;;;-145.18;100.00;47119.47;5069410;28;20111;-61
2023/06/30 09:54:56;;;;;;;2.93;1.80;;;;;;;-145.18;100.00;47113.59;5070826;28;20546;-60
2023/06/30 09:57:26;;;;;;;4.03;2.03;;;;;;;-145.18;100.00;47080.38;5072244;28;20024;-60
2023/06/30 09:59:51;;;;;;;3.20;1.20;;;;;;;-145.18;100.00;47062.81;5072704;28;20036;-61
2023/06/30 10:02:17;;;;;;;3.50;1.47;;;;;;;-145.18;100.00;47070.63;5087472;28;20040;-60
2023/06/30 10:04:43;;;;;;;5.10;2.00;;;;;;;-145.18;100.00;47055.00;5054773;28;20096;-61
2023/06/30 10:07:09;;;;;;;3.97;1.30;;;;;;;-145.18;100.00;47072.56;5074933;28;20020;-61
2023/06/30 10:09:38;;;;;;;7.33;1.87;;;;;;;-145.18;100.00;47068.66;5076540;28;20116;-60
2023/06/30 10:12:06;;;;;;;3.70;1.70;;;;;;;-145.18;100.00;47076.47;5075682;28;20498;-60
2023/06/30 10:14:32;;;;;;;4.37;1.80;;;;;;;-145.18;100.00;47056.94;5071760;28;20078;-60
2023/06/30 10:17:02;;;;;;;2.53;1.53;;;;;;;-145.18;100.00;47064.75;5084014;28;20114;-60
2023/06/30 10:19:28;;;;;;;2.70;1.67;;;;;;;-145.18;100.00;47049.13;5075300;28;20856;-60
2023/06/30 10:21:55;;;;;;;2.63;1.50;;;;;;;-145.18;100.00;47078.44;5075272;28;20040;-62
2023/06/30 10:24:32;;;;;;;1.63;1.33;;;;;;;-145.18;100.00;47047.19;5076809;28;20166;-62
2023/06/30 10:26:58;;;;;;;3.17;1.70;;;;;;;-145.18;100.00;47043.28;5074336;28;20491;-62
2023/06/30 10:29:24;;;;;;;3.40;1.40;;;;;;;-145.18;100.00;47031.53;5087929;28;20100;-62
2023/06/30 10:31:49;;;;;;;8.63;2.15;;;;;;;-145.18;100.00;47056.94;5074410;28;20174;-62
2023/06/30 10:34:16;;;;;;;7.30;2.10;;;;;;;-145.18;100.00;47080.38;5074299;28;20119;-62
2023/06/30 10:36:42;;;;;;;3.30;1.60;;;;;;;-145.18;100.00;47064.75;5089499;28;20060;-62
2023/06/30 10:39:10;;;;;;;2.80;1.50;;;;;;;-145.18;100.00;47074.53;5086459;28;20398;-62
2023/06/30 10:41:46;;;;;;;2.23;1.60;;;;;;;-145.18;100.00;47037.41;5075368;28;20411;-63
2023/06/30 10:44:12;;;;;;;2.40;1.70;;;;;;;-145.18;100.00;47037.41;5080739;28;20062;-62
2023/06/30 10:46:53;;;;;;;4.97;1.67;;;;;;;-145.18;100.00;47066.72;5082612;28;20067;-62
2023/06/30 10:49:26;;;;;;;6.03;2.37;;;;;;;-145.18;100.00;47045.22;5078213;28;20024;-62
2023/06/30 10:51:53;;;;;;;6.33;2.83;;;;;;;-145.18;100.00;47010.06;5093181;28;20097;-62
2023/06/30 10:54:29;;;;;;;3.77;1.93;;;;;;;-145.18;100.00;47017.88;5085710;28;20039;-62
2023/06/30 10:57:17;;;;;;;5.50;2.00;;;;;;;-145.18;100.00;47066.72;5070763;28;20066;-62
2023/06/30 10:59:44;;;;;;;4.37;1.97;;;;;;;-145.18;100.00;47070.63;5073122;28;20549;-62
2023/06/30 11:02:18;;;;;;;3.50;1.83;;;;;;;-145.18;100.00;47070.63;5081815;28;20019;-62
2023/06/30 11:04:45;;;;;;;5.60;1.90;;;;;;;-145.18;100.00;47064.75;5087678;28;20027;-62
2023/06/30 11:07:16;;;;;;;3.03;1.77;;;;;;;-145.18;100.00;47012.00;5087788;28;20085;-62